createdAt,value
2017-09-05T00:00:59.019Z,0
2017-09-05T00:01:59.751Z,0
2017-09-05T00:03:00.445Z,0
2017-09-05T00:04:01.130Z,0
2017-09-05T00:05:02.026Z,0
2017-09-05T00:06:02.697Z,0
2017-09-05T00:07:03.404Z,0
2017-09-05T00:08:04.145Z,0
2017-09-05T00:09:05.003Z,0
2017-09-05T00:10:05.728Z,0
2017-09-05T00:11:06.438Z,0
2017-09-05T00:12:07.139Z,0
2017-09-05T00:13:07.894Z,0
2017-09-05T00:14:08.735Z,0
2017-09-05T00:15:09.588Z,0
2017-09-05T00:16:10.326Z,0
2017-09-05T00:18:26.578Z,0
2017-09-05T00:19:27.307Z,0
2017-09-05T00:20:28.044Z,0
2017-09-05T00:21:29.002Z,0
2017-09-05T00:22:29.784Z,0
2017-09-05T00:23:30.516Z,0
2017-09-05T00:24:31.242Z,0
2017-09-05T00:25:32.074Z,0
2017-09-05T00:26:32.789Z,0
2017-09-05T00:27:33.524Z,0
2017-09-05T00:28:34.586Z,0
2017-09-05T00:29:35.351Z,0
2017-09-05T00:30:36.036Z,0
2017-09-05T00:31:36.911Z,0
2017-09-05T00:32:37.620Z,0
2017-09-05T00:33:38.331Z,0
2017-09-05T00:34:39.196Z,0
2017-09-05T00:35:39.941Z,0
2017-09-05T00:36:40.754Z,0
2017-09-05T00:37:41.488Z,0
2017-09-05T00:38:42.334Z,0
2017-09-05T00:39:43.167Z,0
2017-09-05T00:40:44.525Z,0
2017-09-05T00:41:45.270Z,0
2017-09-05T00:42:46.017Z,0
2017-09-05T00:43:46.796Z,0
2017-09-05T00:44:47.579Z,0
2017-09-05T00:45:48.438Z,0
2017-09-05T00:46:49.250Z,0
2017-09-05T00:47:50.036Z,0
2017-09-05T00:48:50.789Z,0
2017-09-05T00:49:51.582Z,0
2017-09-05T00:50:52.411Z,0
2017-09-05T00:51:53.513Z,0
2017-09-05T00:52:54.251Z,0
2017-09-05T00:53:55.048Z,0
2017-09-05T00:54:56.649Z,0
2017-09-05T00:55:57.794Z,0
2017-09-05T00:56:58.581Z,0
2017-09-05T00:57:59.323Z,0
2017-09-05T00:59:00.043Z,0
2017-09-05T01:00:01.010Z,0
2017-09-05T01:01:01.912Z,0
2017-09-05T01:02:02.696Z,0
2017-09-05T01:03:03.536Z,0
2017-09-05T01:04:04.205Z,0
2017-09-05T01:05:04.959Z,0
2017-09-05T01:06:06.043Z,0
2017-09-05T01:07:06.805Z,0
2017-09-05T01:08:07.575Z,0
2017-09-05T01:09:08.313Z,0
2017-09-05T01:10:09.033Z,0
2017-09-05T01:11:09.836Z,0
2017-09-05T01:12:10.617Z,0
2017-09-05T01:13:11.366Z,0
2017-09-05T01:14:12.138Z,0
2017-09-05T01:15:12.963Z,0
2017-09-05T01:16:13.894Z,0
2017-09-05T01:17:14.588Z,0
2017-09-05T01:18:15.451Z,0
2017-09-05T01:19:16.181Z,0
2017-09-05T01:20:16.945Z,0
2017-09-05T01:21:17.677Z,0
2017-09-05T01:22:18.415Z,0
2017-09-05T01:23:19.146Z,0
2017-09-05T01:24:19.890Z,0
2017-09-05T01:25:20.787Z,0
2017-09-05T01:26:21.535Z,0
2017-09-05T01:27:22.207Z,0
2017-09-05T01:28:22.942Z,0
2017-09-05T01:29:23.669Z,0
2017-09-05T01:30:24.483Z,0
2017-09-05T01:31:25.245Z,0
2017-09-05T01:32:26.250Z,0
2017-09-05T01:33:27.015Z,0
2017-09-05T01:34:27.811Z,0
2017-09-05T01:35:28.656Z,0
2017-09-05T01:36:29.633Z,0
2017-09-05T01:37:30.313Z,0
2017-09-05T01:38:31.161Z,0
2017-09-05T01:39:31.917Z,0
2017-09-05T01:40:32.650Z,0
2017-09-05T01:41:33.381Z,0
2017-09-05T01:42:34.135Z,0
2017-09-05T01:43:34.917Z,0
2017-09-05T01:44:35.707Z,0
2017-09-05T01:45:36.524Z,0
2017-09-05T01:46:37.195Z,0
2017-09-05T01:47:37.912Z,0
2017-09-05T01:48:38.798Z,0
2017-09-05T01:49:39.495Z,0
2017-09-05T01:50:40.290Z,0
2017-09-05T01:51:41.106Z,0
2017-09-05T01:52:41.781Z,0
2017-09-05T01:53:42.599Z,0
2017-09-05T01:54:43.295Z,0
2017-09-05T01:55:44.170Z,0
2017-09-05T01:56:44.889Z,0
2017-09-05T01:57:45.610Z,0
2017-09-05T01:58:46.338Z,0
2017-09-05T01:59:47.044Z,0
2017-09-05T02:00:47.754Z,0
2017-09-05T02:01:48.560Z,0
2017-09-05T02:02:49.246Z,0
2017-09-05T02:03:50.108Z,0
2017-09-05T02:04:50.913Z,0
2017-09-05T02:05:51.662Z,0
2017-09-05T02:06:52.390Z,0
2017-09-05T02:07:53.110Z,0
2017-09-05T02:08:53.848Z,0
2017-09-05T02:09:54.600Z,0
2017-09-05T02:10:55.326Z,0
2017-09-05T02:11:56.063Z,0
2017-09-05T02:12:56.761Z,0
2017-09-05T02:13:57.690Z,0
2017-09-05T02:14:58.532Z,0
2017-09-05T02:15:59.257Z,0
2017-09-05T02:17:00.136Z,0
2017-09-05T02:18:00.849Z,0
2017-09-05T02:19:01.601Z,0
2017-09-05T02:20:02.317Z,0
2017-09-05T02:21:03.067Z,0
2017-09-05T02:22:03.822Z,0
2017-09-05T02:23:04.558Z,0
2017-09-05T02:24:05.356Z,0
2017-09-05T02:25:06.202Z,0
2017-09-05T02:26:06.880Z,0
2017-09-05T02:27:07.624Z,0
2017-09-05T02:28:08.434Z,0
2017-09-05T02:29:09.122Z,0
2017-09-05T02:30:10.254Z,0
2017-09-05T02:31:10.936Z,0
2017-09-05T02:32:11.698Z,0
2017-09-05T02:33:12.438Z,0
2017-09-05T02:34:13.111Z,0
2017-09-05T02:35:13.885Z,0
2017-09-05T02:36:14.654Z,0
2017-09-05T02:37:15.467Z,0
2017-09-05T02:38:16.167Z,0
2017-09-05T02:39:16.939Z,0
2017-09-05T02:40:17.635Z,0
2017-09-05T02:41:18.416Z,0
2017-09-05T02:42:19.162Z,0
2017-09-05T02:43:19.907Z,0
2017-09-05T02:44:20.609Z,0
2017-09-05T02:45:21.667Z,0
2017-09-05T02:46:22.649Z,0
2017-09-05T02:47:23.511Z,0
2017-09-05T02:48:24.188Z,0
2017-09-05T02:49:24.930Z,0
2017-09-05T02:50:25.697Z,0
2017-09-05T02:51:26.498Z,0
2017-09-05T02:52:27.242Z,0
2017-09-05T02:53:28.416Z,0
2017-09-05T02:54:29.093Z,0
2017-09-05T02:55:30.020Z,0
2017-09-05T02:56:30.824Z,0
2017-09-05T02:57:31.811Z,0
2017-09-05T02:58:32.552Z,0
2017-09-05T02:59:33.299Z,0
2017-09-05T03:00:34.184Z,0
2017-09-05T03:01:34.874Z,0
2017-09-05T03:02:35.611Z,0
2017-09-05T03:03:36.364Z,0
2017-09-05T03:04:37.100Z,0
2017-09-05T03:05:37.927Z,0
2017-09-05T03:06:38.743Z,0
2017-09-05T03:07:39.460Z,0
2017-09-05T03:08:40.215Z,0
2017-09-05T03:09:41.078Z,0
2017-09-05T03:10:41.777Z,0
2017-09-05T03:11:42.526Z,0
2017-09-05T03:12:43.260Z,0
2017-09-05T03:13:44.016Z,0
2017-09-05T03:14:44.754Z,0
2017-09-05T03:15:45.495Z,0
2017-09-05T03:16:46.130Z,0
2017-09-05T03:17:46.901Z,0
2017-09-05T03:18:47.662Z,0
2017-09-05T03:19:48.406Z,0
2017-09-05T03:20:49.122Z,0
2017-09-05T03:21:49.853Z,0
2017-09-05T03:22:50.550Z,0
2017-09-05T03:23:51.301Z,0
2017-09-05T03:24:52.001Z,0
2017-09-05T03:25:52.787Z,0
2017-09-05T03:26:53.553Z,0
2017-09-05T03:27:54.320Z,0
2017-09-05T03:28:54.998Z,0
2017-09-05T03:29:55.724Z,0
2017-09-05T03:30:56.471Z,0
2017-09-05T03:31:57.202Z,0
2017-09-05T03:32:57.912Z,0
2017-09-05T03:33:58.658Z,0
2017-09-05T03:34:59.382Z,0
2017-09-05T03:36:00.124Z,0
2017-09-05T03:37:00.819Z,0
2017-09-05T03:38:01.614Z,0
2017-09-05T03:39:02.421Z,0
2017-09-05T03:40:03.647Z,0
2017-09-05T03:41:04.313Z,0
2017-09-05T03:42:05.084Z,0
2017-09-05T03:43:05.806Z,0
2017-09-05T03:44:06.551Z,0
2017-09-05T03:45:07.522Z,0
2017-09-05T03:46:08.213Z,0
2017-09-05T03:47:08.956Z,0
2017-09-05T03:48:09.746Z,0
2017-09-05T03:49:10.489Z,0
2017-09-05T03:50:11.228Z,0
2017-09-05T03:51:12.301Z,0
2017-09-05T03:52:13.045Z,0
2017-09-05T03:53:13.788Z,0
2017-09-05T03:54:14.581Z,0
2017-09-05T03:55:15.486Z,0
2017-09-05T03:56:16.182Z,0
2017-09-05T03:57:16.929Z,0
2017-09-05T03:58:17.753Z,0
2017-09-05T03:59:18.789Z,0
2017-09-05T04:00:20.818Z,0
2017-09-05T04:01:21.493Z,0
2017-09-05T04:02:22.997Z,0
2017-09-05T04:03:23.763Z,0
2017-09-05T04:04:24.520Z,0
2017-09-05T04:05:25.530Z,0
2017-09-05T04:06:26.164Z,0
2017-09-05T04:07:27.178Z,0
2017-09-05T04:08:27.918Z,0
2017-09-05T04:09:28.609Z,0
2017-09-05T04:10:29.392Z,0
2017-09-05T04:11:30.118Z,0
2017-09-05T04:12:30.891Z,0
2017-09-05T04:13:31.608Z,0
2017-09-05T04:14:32.313Z,0
2017-09-05T04:15:33.062Z,0
2017-09-05T04:16:33.727Z,0
2017-09-05T04:17:34.422Z,0
2017-09-05T04:18:35.161Z,0
2017-09-05T04:19:35.892Z,0
2017-09-05T04:20:36.635Z,0
2017-09-05T04:21:37.568Z,0
2017-09-05T04:22:38.315Z,0
2017-09-05T04:23:39.014Z,0
2017-09-05T04:24:39.892Z,0
2017-09-05T04:25:40.577Z,0
2017-09-05T04:26:41.276Z,0
2017-09-05T04:27:41.990Z,0
2017-09-05T04:28:42.735Z,0
2017-09-05T04:29:43.551Z,0
2017-09-05T04:30:44.272Z,0
2017-09-05T04:31:45.040Z,0
2017-09-05T04:32:45.822Z,0
2017-09-05T04:33:46.609Z,0
2017-09-05T04:34:47.391Z,0
2017-09-05T04:35:48.084Z,0
2017-09-05T04:36:48.790Z,0
2017-09-05T04:37:49.555Z,0
2017-09-05T04:38:50.298Z,0
2017-09-05T04:39:51.188Z,0
2017-09-05T04:40:51.872Z,0
2017-09-05T04:41:52.601Z,0
2017-09-05T04:42:53.357Z,0
2017-09-05T04:43:54.079Z,0
2017-09-05T04:44:54.823Z,0
2017-09-05T04:45:55.556Z,5
2017-09-05T04:46:56.264Z,5
2017-09-05T04:47:57.033Z,5
2017-09-05T04:48:57.773Z,5
2017-09-05T04:49:58.505Z,5
2017-09-05T04:50:59.310Z,10
2017-09-05T04:51:59.966Z,10
2017-09-05T04:53:00.700Z,10
2017-09-05T04:54:01.422Z,15
2017-09-05T04:55:02.168Z,15
2017-09-05T04:56:02.857Z,15
2017-09-05T04:57:03.605Z,15
2017-09-05T04:58:04.521Z,10
2017-09-05T04:59:05.296Z,10
2017-09-05T05:00:06.152Z,10
2017-09-05T05:01:06.839Z,10
2017-09-05T05:02:07.527Z,15
2017-09-05T05:03:08.281Z,15
2017-09-05T05:04:08.967Z,15
2017-09-05T05:05:09.750Z,15
2017-09-05T05:06:10.478Z,15
2017-09-05T05:07:11.215Z,20
2017-09-05T05:08:12.087Z,25
2017-09-05T05:09:12.865Z,25
2017-09-05T05:10:13.530Z,25
2017-09-05T05:11:14.257Z,25
2017-09-05T05:12:14.977Z,30
2017-09-05T05:13:15.735Z,30
2017-09-05T05:14:16.608Z,30
2017-09-05T05:15:17.282Z,30
2017-09-05T05:16:18.042Z,35
2017-09-05T05:17:18.743Z,35
2017-09-05T05:18:19.555Z,40
2017-09-05T05:19:20.231Z,40
2017-09-05T05:20:21.001Z,40
2017-09-05T05:21:21.765Z,40
2017-09-05T05:22:22.499Z,40
2017-09-05T05:23:23.306Z,45
2017-09-05T05:24:24.018Z,45
2017-09-05T05:25:24.737Z,45
2017-09-05T05:26:25.557Z,45
2017-09-05T05:27:26.261Z,45
2017-09-05T05:28:27.072Z,45
2017-09-05T05:29:27.929Z,50
2017-09-05T05:30:28.754Z,50
2017-09-05T05:31:29.487Z,50
2017-09-05T05:32:30.202Z,50
2017-09-05T05:33:30.920Z,55
2017-09-05T05:34:31.663Z,55
2017-09-05T05:35:32.388Z,55
2017-09-05T05:36:33.432Z,55
2017-09-05T05:37:34.207Z,55
2017-09-05T05:38:34.967Z,60
2017-09-05T05:39:35.716Z,60
2017-09-05T05:40:36.529Z,60
2017-09-05T05:41:37.217Z,60
2017-09-05T05:42:37.989Z,65
2017-09-05T05:43:38.722Z,65
2017-09-05T05:44:39.448Z,65
2017-09-05T05:45:40.213Z,65
2017-09-05T05:46:41.089Z,70
2017-09-05T05:47:41.821Z,70
2017-09-05T05:48:42.581Z,70
2017-09-05T05:49:43.318Z,70
2017-09-05T05:50:44.040Z,75
2017-09-05T05:51:44.786Z,70
2017-09-05T05:52:45.539Z,70
2017-09-05T05:53:46.337Z,70
2017-09-05T05:54:47.033Z,70
2017-09-05T05:55:47.858Z,65
2017-09-05T05:56:48.576Z,70
2017-09-05T05:57:49.293Z,70
2017-09-05T05:58:50.052Z,70
2017-09-05T05:59:50.779Z,70
2017-09-05T06:00:51.497Z,70
2017-09-05T06:01:52.225Z,70
2017-09-05T06:02:52.955Z,70
2017-09-05T06:03:53.759Z,70
2017-09-05T06:04:54.463Z,70
2017-09-05T06:05:55.256Z,70
2017-09-05T06:06:56.018Z,70
2017-09-05T06:07:56.766Z,70
2017-09-05T06:08:57.636Z,70
2017-09-05T06:09:58.345Z,70
2017-09-05T06:10:59.070Z,70
2017-09-05T06:11:59.805Z,70
2017-09-05T06:13:00.604Z,70
2017-09-05T06:14:01.421Z,75
2017-09-05T06:15:02.233Z,70
2017-09-05T06:16:02.993Z,70
2017-09-05T06:17:03.734Z,70
2017-09-05T06:18:04.622Z,70
2017-09-05T06:19:05.289Z,70
2017-09-05T06:20:06.044Z,70
2017-09-05T06:21:06.729Z,70
2017-09-05T06:22:07.487Z,70
2017-09-05T06:23:08.208Z,65
2017-09-05T06:24:08.940Z,65
2017-09-05T06:25:09.720Z,60
2017-09-05T06:26:10.468Z,55
2017-09-05T06:27:11.479Z,50
2017-09-05T06:28:12.238Z,35
2017-09-05T06:29:12.950Z,30
2017-09-05T06:30:14.110Z,25
2017-09-05T06:31:14.852Z,25
2017-09-05T06:32:15.601Z,30
2017-09-05T06:33:16.342Z,30
2017-09-05T06:34:17.075Z,35
2017-09-05T06:35:17.868Z,25
2017-09-05T06:36:18.647Z,35
2017-09-05T06:37:19.419Z,35
2017-09-05T06:38:20.159Z,35
2017-09-05T06:39:21.045Z,35
2017-09-05T06:40:21.795Z,30
2017-09-05T06:41:22.560Z,30
2017-09-05T06:42:23.314Z,25
2017-09-05T06:43:24.081Z,25
2017-09-05T06:44:24.853Z,20
2017-09-05T06:45:25.630Z,20
2017-09-05T06:46:26.411Z,20
2017-09-05T06:47:27.117Z,20
2017-09-05T06:48:27.858Z,20
2017-09-05T06:49:28.618Z,20
2017-09-05T06:50:29.415Z,20
2017-09-05T06:51:30.200Z,20
2017-09-05T06:52:30.937Z,20
2017-09-05T06:53:31.985Z,20
2017-09-05T06:54:32.705Z,20
2017-09-05T06:55:33.462Z,20
2017-09-05T06:56:34.361Z,20
2017-09-05T06:57:35.028Z,20
2017-09-05T06:58:35.804Z,20
2017-09-05T06:59:36.549Z,20
2017-09-05T07:00:37.523Z,20
2017-09-05T07:01:38.294Z,20
2017-09-05T07:02:39.013Z,20
2017-09-05T07:03:39.764Z,20
2017-09-05T07:04:40.483Z,25
2017-09-05T07:05:41.260Z,25
2017-09-05T07:06:41.936Z,25
2017-09-05T07:07:42.990Z,30
2017-09-05T07:08:43.746Z,30
2017-09-05T07:09:44.492Z,30
2017-09-05T07:10:45.201Z,30
2017-09-05T07:11:45.970Z,30
2017-09-05T07:12:46.739Z,35
2017-09-05T07:13:47.444Z,35
2017-09-05T07:14:48.129Z,35
2017-09-05T07:15:48.869Z,35
2017-09-05T07:16:49.811Z,35
2017-09-05T07:17:50.598Z,40
2017-09-05T07:18:51.313Z,40
2017-09-05T07:19:52.056Z,40
2017-09-05T07:20:52.869Z,40
2017-09-05T07:21:53.554Z,40
2017-09-05T07:22:54.330Z,40
2017-09-05T07:23:55.124Z,45
2017-09-05T07:24:55.827Z,45
2017-09-05T07:25:56.606Z,45
2017-09-05T07:26:57.277Z,45
2017-09-05T07:27:58.279Z,45
2017-09-05T07:28:58.989Z,45
2017-09-05T07:29:59.794Z,50
2017-09-05T07:31:00.963Z,50
2017-09-05T07:32:01.755Z,50
2017-09-05T07:33:02.471Z,55
2017-09-05T07:34:03.240Z,55
2017-09-05T07:35:03.975Z,55
2017-09-05T07:36:04.753Z,60
2017-09-05T07:37:05.449Z,60
2017-09-05T07:38:06.223Z,60
2017-09-05T07:39:06.905Z,60
2017-09-05T07:40:07.708Z,60
2017-09-05T07:41:08.510Z,60
2017-09-05T07:42:09.218Z,60
2017-09-05T07:43:09.976Z,60
2017-09-05T07:44:10.724Z,60
2017-09-05T07:45:11.458Z,65
2017-09-05T07:46:12.255Z,65
2017-09-05T07:47:12.956Z,65
2017-09-05T07:48:13.680Z,65
2017-09-05T07:49:14.457Z,65
2017-09-05T07:50:15.316Z,65
2017-09-05T07:51:16.099Z,70
2017-09-05T07:52:16.888Z,65
2017-09-05T07:53:17.766Z,70
2017-09-05T07:54:18.453Z,65
2017-09-05T07:55:19.189Z,65
2017-09-05T07:56:20.599Z,70
2017-09-05T07:57:21.375Z,70
2017-09-05T07:58:22.063Z,75
2017-09-05T07:59:22.874Z,80
2017-09-05T08:00:23.706Z,75
2017-09-05T08:01:24.779Z,75
2017-09-05T08:02:25.789Z,75
2017-09-05T08:03:26.500Z,75
2017-09-05T08:04:27.241Z,75
2017-09-05T08:05:27.932Z,70
2017-09-05T08:06:28.778Z,75
2017-09-05T08:07:29.528Z,70
2017-09-05T08:08:30.313Z,70
2017-09-05T08:09:31.050Z,75
2017-09-05T08:10:31.780Z,80
2017-09-05T08:11:32.530Z,70
2017-09-05T08:12:33.259Z,70
2017-09-05T08:13:34.075Z,70
2017-09-05T08:14:35.075Z,70
2017-09-05T08:15:35.828Z,70
2017-09-05T08:16:36.518Z,65
2017-09-05T08:17:37.273Z,70
2017-09-05T08:18:38.005Z,70
2017-09-05T08:19:38.717Z,75
2017-09-05T08:20:39.443Z,75
2017-09-05T08:21:40.242Z,70
2017-09-05T08:22:40.972Z,65
2017-09-05T08:23:41.717Z,60
2017-09-05T08:24:42.441Z,75
2017-09-05T08:25:43.233Z,80
2017-09-05T08:26:44.058Z,75
2017-09-05T08:27:44.759Z,55
2017-09-05T08:28:45.503Z,50
2017-09-05T08:29:46.337Z,50
2017-09-05T08:30:47.018Z,50
2017-09-05T08:31:47.778Z,50
2017-09-05T08:32:48.514Z,50
2017-09-05T08:33:49.251Z,50
2017-09-05T08:34:50.019Z,50
2017-09-05T08:35:50.750Z,50
2017-09-05T08:36:51.460Z,45
2017-09-05T08:37:52.344Z,45
2017-09-05T08:38:53.171Z,45
2017-09-05T08:39:53.901Z,45
2017-09-05T08:40:54.997Z,45
2017-09-05T08:41:55.711Z,45
2017-09-05T08:42:56.485Z,45
2017-09-05T08:43:57.220Z,45
2017-09-05T08:44:57.953Z,45
2017-09-05T08:45:58.682Z,45
2017-09-05T08:46:59.425Z,45
2017-09-05T08:48:00.169Z,45
2017-09-05T08:49:00.891Z,45
2017-09-05T08:50:01.675Z,45
2017-09-05T08:51:02.401Z,45
2017-09-05T08:52:03.232Z,40
2017-09-05T08:53:03.931Z,40
2017-09-05T08:54:04.731Z,40
2017-09-05T08:55:05.481Z,40
2017-09-05T08:56:06.299Z,40
2017-09-05T08:57:07.052Z,40
2017-09-05T08:58:07.935Z,35
2017-09-05T08:59:08.669Z,35
2017-09-05T09:00:09.500Z,35
2017-09-05T09:01:10.340Z,35
2017-09-05T09:02:11.108Z,35
2017-09-05T09:03:11.944Z,35
2017-09-05T09:04:12.707Z,35
2017-09-05T09:05:13.454Z,30
2017-09-05T09:06:14.173Z,30
2017-09-05T09:07:14.913Z,30
2017-09-05T09:08:15.719Z,30
2017-09-05T09:09:16.452Z,30
2017-09-05T09:10:17.215Z,30
2017-09-05T09:11:17.946Z,30
2017-09-05T09:12:18.608Z,30
2017-09-05T09:13:19.353Z,30
2017-09-05T09:14:20.229Z,30
2017-09-05T09:15:20.919Z,30
2017-09-05T09:16:21.643Z,30
2017-09-05T09:17:22.428Z,30
2017-09-05T09:18:23.177Z,30
2017-09-05T09:19:23.920Z,30
2017-09-05T09:20:24.748Z,30
2017-09-05T09:21:25.553Z,25
2017-09-05T09:22:26.305Z,25
2017-09-05T09:23:27.045Z,20
2017-09-05T09:24:27.766Z,25
2017-09-05T09:25:28.512Z,25
2017-09-05T09:26:29.245Z,25
2017-09-05T09:27:29.973Z,20
2017-09-05T09:28:30.756Z,10
2017-09-05T09:29:31.445Z,30
2017-09-05T09:30:32.444Z,15
2017-09-05T09:31:33.165Z,20
2017-09-05T09:32:33.948Z,15
2017-09-05T09:33:34.740Z,10
2017-09-05T09:34:35.505Z,15
2017-09-05T09:35:36.375Z,10
2017-09-05T09:36:37.091Z,20
2017-09-05T09:37:37.858Z,20
2017-09-05T09:38:38.861Z,15
2017-09-05T09:39:39.573Z,10
2017-09-05T09:40:40.385Z,25
2017-09-05T09:41:41.102Z,15
2017-09-05T09:42:41.859Z,10
2017-09-05T09:43:42.624Z,10
2017-09-05T09:44:43.345Z,25
2017-09-05T09:45:44.281Z,25
2017-09-05T09:46:45.003Z,25
2017-09-05T09:47:45.726Z,25
2017-09-05T09:48:46.466Z,25
2017-09-05T09:49:47.212Z,25
2017-09-05T09:50:48.048Z,20
2017-09-05T09:51:48.763Z,25
2017-09-05T09:52:49.605Z,25
2017-09-05T09:53:50.281Z,20
2017-09-05T09:54:51.020Z,25
2017-09-05T09:55:51.739Z,25
2017-09-05T09:56:52.527Z,25
2017-09-05T09:57:53.333Z,25
2017-09-05T09:58:54.097Z,20
2017-09-05T09:59:54.885Z,20
2017-09-05T10:00:55.672Z,15
2017-09-05T10:01:56.487Z,20
2017-09-05T10:02:57.282Z,20
2017-09-05T10:03:57.981Z,25
2017-09-05T10:04:58.757Z,25
2017-09-05T10:05:59.489Z,25
2017-09-05T10:07:00.232Z,10
2017-09-05T10:08:01.070Z,20
2017-09-05T10:09:01.776Z,20
2017-09-05T10:10:02.506Z,25
2017-09-05T10:11:03.264Z,25
2017-09-05T10:12:04.015Z,20
2017-09-05T10:13:04.751Z,10
2017-09-05T10:14:05.467Z,10
2017-09-05T10:15:06.227Z,15
2017-09-05T10:16:07.036Z,10
2017-09-05T10:17:07.925Z,15
2017-09-05T10:18:08.591Z,10
2017-09-05T10:19:09.507Z,20
2017-09-05T10:20:10.195Z,15
2017-09-05T10:21:11.099Z,15
2017-09-05T10:22:11.850Z,15
2017-09-05T10:23:12.665Z,15
2017-09-05T10:24:13.405Z,20
2017-09-05T10:25:14.160Z,25
2017-09-05T10:26:14.900Z,25
2017-09-05T10:27:15.679Z,15
2017-09-05T10:28:16.489Z,15
2017-09-05T10:29:17.263Z,15
2017-09-05T10:30:18.042Z,10
2017-09-05T10:31:18.902Z,15
2017-09-05T10:32:19.635Z,15
2017-09-05T10:33:20.422Z,10
2017-09-05T10:34:21.145Z,10
2017-09-05T10:35:21.897Z,10
2017-09-05T10:36:22.654Z,10
2017-09-05T10:37:23.384Z,10
2017-09-05T10:38:24.115Z,10
2017-09-05T10:39:24.899Z,10
2017-09-05T10:40:25.664Z,10
2017-09-05T10:41:26.420Z,10
2017-09-05T10:42:27.135Z,10
2017-09-05T10:43:27.896Z,10
2017-09-05T10:44:28.892Z,10
2017-09-05T10:45:29.663Z,10
2017-09-05T10:46:30.508Z,10
2017-09-05T10:47:31.474Z,10
2017-09-05T10:48:32.226Z,10
2017-09-05T10:49:33.084Z,10
2017-09-05T10:50:33.848Z,10
2017-09-05T10:51:34.594Z,10
2017-09-05T10:52:35.329Z,10
2017-09-05T10:53:36.148Z,10
2017-09-05T10:54:36.907Z,10
2017-09-05T10:55:37.728Z,10
2017-09-05T10:56:38.653Z,10
2017-09-05T10:57:39.352Z,10
2017-09-05T10:58:40.120Z,15
2017-09-05T10:59:40.903Z,15
2017-09-05T11:00:41.772Z,10
2017-09-05T11:01:42.566Z,10
2017-09-05T11:02:43.390Z,10
2017-09-05T11:03:44.125Z,10
2017-09-05T11:04:44.810Z,10
2017-09-05T11:05:45.677Z,10
2017-09-05T11:06:46.384Z,10
2017-09-05T11:07:47.107Z,10
2017-09-05T11:08:47.942Z,10
2017-09-05T11:09:48.653Z,10
2017-09-05T11:10:49.408Z,10
2017-09-05T11:11:50.118Z,10
2017-09-05T11:12:50.849Z,10
2017-09-05T11:13:51.615Z,10
2017-09-05T11:14:52.375Z,10
2017-09-05T11:15:53.411Z,10
2017-09-05T11:16:54.276Z,10
2017-09-05T11:17:55.132Z,10
2017-09-05T11:18:55.914Z,10
2017-09-05T11:19:56.676Z,20
2017-09-05T11:20:57.456Z,15
2017-09-05T11:21:58.210Z,15
2017-09-05T11:22:58.945Z,10
2017-09-05T11:23:59.664Z,10
2017-09-05T11:25:00.453Z,10
2017-09-05T11:26:01.237Z,10
2017-09-05T11:27:02.089Z,10
2017-09-05T11:28:02.836Z,10
2017-09-05T11:29:03.605Z,10
2017-09-05T11:30:04.420Z,10
2017-09-05T11:31:05.283Z,10
2017-09-05T11:32:06.229Z,15
2017-09-05T11:33:07.085Z,10
2017-09-05T11:35:23.306Z,10
2017-09-05T11:36:24.003Z,10
2017-09-05T11:37:24.800Z,10
2017-09-05T11:38:25.606Z,10
2017-09-05T11:39:26.497Z,10
2017-09-05T11:40:27.170Z,10
2017-09-05T11:41:27.910Z,10
2017-09-05T11:42:28.720Z,10
2017-09-05T11:43:29.428Z,10
2017-09-05T11:45:46.180Z,10
2017-09-05T11:46:46.850Z,5
2017-09-05T11:47:47.551Z,5
2017-09-05T11:48:48.351Z,5
2017-09-05T11:49:49.203Z,5
2017-09-05T11:50:50.050Z,5
2017-09-05T11:51:50.790Z,5
2017-09-05T11:52:51.577Z,5
2017-09-05T11:53:52.257Z,5
2017-09-05T11:54:52.983Z,5
2017-09-05T11:55:53.766Z,5
2017-09-05T11:56:54.527Z,5
2017-09-05T11:57:55.413Z,5
2017-09-05T11:58:56.157Z,5
2017-09-05T11:59:56.895Z,5
2017-09-05T12:00:57.688Z,5
2017-09-05T12:01:58.422Z,5
2017-09-05T12:02:59.168Z,5
2017-09-05T12:03:59.888Z,5
2017-09-05T12:05:00.610Z,5
2017-09-05T12:06:01.458Z,5
2017-09-05T12:07:02.161Z,5
2017-09-05T12:08:02.882Z,5
2017-09-05T12:09:03.602Z,5
2017-09-05T12:10:04.343Z,5
2017-09-05T12:11:05.066Z,5
2017-09-05T12:12:05.852Z,5
2017-09-05T12:13:06.580Z,10
2017-09-05T12:14:07.323Z,10
2017-09-05T12:15:08.271Z,10
2017-09-05T12:16:09.035Z,5
2017-09-05T12:17:09.787Z,5
2017-09-05T12:18:10.538Z,5
2017-09-05T12:19:11.263Z,5
2017-09-05T12:20:12.097Z,5
2017-09-05T12:21:12.813Z,5
2017-09-05T12:22:13.626Z,5
2017-09-05T12:23:14.913Z,5
2017-09-05T12:24:15.660Z,5
2017-09-05T12:25:16.370Z,5
2017-09-05T12:26:17.111Z,5
2017-09-05T12:27:17.824Z,5
2017-09-05T12:28:18.653Z,5
2017-09-05T12:29:19.410Z,10
2017-09-05T12:30:20.123Z,15
2017-09-05T12:31:21.042Z,15
2017-09-05T12:32:21.786Z,15
2017-09-05T12:33:22.568Z,15
2017-09-05T12:34:23.298Z,10
2017-09-05T12:35:24.056Z,10
2017-09-05T12:36:24.793Z,10
2017-09-05T12:37:25.565Z,10
2017-09-05T12:38:26.335Z,10
2017-09-05T12:39:27.006Z,10
2017-09-05T12:40:27.817Z,10
2017-09-05T12:41:28.560Z,10
2017-09-05T12:42:29.319Z,10
2017-09-05T12:43:30.094Z,10
2017-09-05T12:44:30.871Z,5
2017-09-05T12:45:31.692Z,5
2017-09-05T12:46:32.384Z,5
2017-09-05T12:47:33.197Z,5
2017-09-05T12:48:33.913Z,5
2017-09-05T12:49:34.666Z,5
2017-09-05T12:50:35.410Z,5
2017-09-05T12:51:36.263Z,5
2017-09-05T12:52:36.964Z,5
2017-09-05T12:53:37.710Z,5
2017-09-05T12:54:38.466Z,5
2017-09-05T12:55:39.271Z,10
2017-09-05T12:56:40.122Z,15
2017-09-05T12:57:40.799Z,10
2017-09-05T12:58:41.644Z,10
2017-09-05T12:59:42.357Z,10
2017-09-05T13:00:43.188Z,10
2017-09-05T13:01:44.030Z,10
2017-09-05T13:02:44.702Z,10
2017-09-05T13:03:45.488Z,10
2017-09-05T13:04:46.235Z,10
2017-09-05T13:05:46.943Z,10
2017-09-05T13:06:47.760Z,10
2017-09-05T13:07:48.460Z,10
2017-09-05T13:08:49.213Z,5
2017-09-05T13:09:49.908Z,5
2017-09-05T13:10:50.795Z,5
2017-09-05T13:11:51.675Z,5
2017-09-05T13:12:52.464Z,5
2017-09-05T13:13:53.247Z,5
2017-09-05T13:14:54.022Z,5
2017-09-05T13:15:55.226Z,5
2017-09-05T13:16:55.937Z,5
2017-09-05T13:17:56.704Z,5
2017-09-05T13:18:57.472Z,5
2017-09-05T13:19:58.202Z,5
2017-09-05T13:20:59.053Z,5
2017-09-05T13:21:59.931Z,5
2017-09-05T13:23:00.622Z,5
2017-09-05T13:24:01.392Z,5
2017-09-05T13:25:02.089Z,5
2017-09-05T13:26:02.954Z,5
2017-09-05T13:27:03.684Z,5
2017-09-05T13:28:04.441Z,5
2017-09-05T13:29:05.275Z,5
2017-09-05T13:30:06.096Z,5
2017-09-05T13:31:06.961Z,5
2017-09-05T13:32:07.801Z,5
2017-09-05T13:33:08.629Z,5
2017-09-05T13:34:09.469Z,5
2017-09-05T13:35:10.262Z,5
2017-09-05T13:36:11.009Z,5
2017-09-05T13:37:11.836Z,5
2017-09-05T13:38:12.601Z,5
2017-09-05T13:39:13.391Z,5
2017-09-05T13:40:14.520Z,5
2017-09-05T13:41:15.229Z,5
2017-09-05T13:42:16.018Z,5
2017-09-05T13:43:16.901Z,5
2017-09-05T13:44:17.707Z,5
2017-09-05T13:45:18.425Z,5
2017-09-05T13:46:19.204Z,5
2017-09-05T13:47:20.009Z,5
2017-09-05T13:48:20.855Z,5
2017-09-05T13:49:21.616Z,5
2017-09-05T13:50:22.350Z,5
2017-09-05T13:51:23.345Z,5
2017-09-05T13:52:24.100Z,5
2017-09-05T13:53:24.821Z,5
2017-09-05T13:54:25.606Z,5
2017-09-05T13:55:26.306Z,5
2017-09-05T13:56:27.058Z,5
2017-09-05T13:57:27.850Z,5
2017-09-05T13:58:28.572Z,5
2017-09-05T13:59:29.331Z,5
2017-09-05T14:00:30.363Z,5
2017-09-05T14:01:31.115Z,5
2017-09-05T14:02:31.887Z,5
2017-09-05T14:03:32.664Z,5
2017-09-05T14:04:33.495Z,5
2017-09-05T14:05:34.235Z,5
2017-09-05T14:06:34.946Z,5
2017-09-05T14:07:35.716Z,5
2017-09-05T14:08:36.467Z,5
2017-09-05T14:09:37.238Z,5
2017-09-05T14:10:38.063Z,5
2017-09-05T14:11:38.879Z,5
2017-09-05T14:12:39.657Z,5
2017-09-05T14:13:40.865Z,5
2017-09-05T14:14:41.566Z,5
2017-09-05T14:15:42.476Z,5
2017-09-05T14:16:43.488Z,5
2017-09-05T14:17:44.275Z,5
2017-09-05T14:18:44.968Z,5
2017-09-05T14:19:45.838Z,0
2017-09-05T14:20:46.572Z,0
2017-09-05T14:21:47.338Z,0
2017-09-05T14:22:48.095Z,0
2017-09-05T14:23:49.012Z,0
2017-09-05T14:24:49.682Z,0
2017-09-05T14:25:50.637Z,5
2017-09-05T14:26:51.481Z,5
2017-09-05T14:27:52.275Z,5
2017-09-05T14:28:52.973Z,5
2017-09-05T14:29:53.752Z,5
2017-09-05T14:30:54.666Z,5
2017-09-05T14:31:55.422Z,5
2017-09-05T14:32:56.243Z,5
2017-09-05T14:33:57.131Z,5
2017-09-05T14:34:58.027Z,5
2017-09-05T14:35:58.824Z,5
2017-09-05T14:36:59.559Z,5
2017-09-05T14:38:00.384Z,5
2017-09-05T14:39:01.206Z,5
2017-09-05T14:40:02.770Z,5
2017-09-05T14:41:03.485Z,5
2017-09-05T14:42:04.573Z,5
2017-09-05T14:43:05.555Z,5
2017-09-05T14:44:06.325Z,5
2017-09-05T14:45:07.042Z,5
2017-09-05T14:46:07.814Z,5
2017-09-05T14:47:08.755Z,5